Time;durP1;ratioP1;P1;durP2;ratioP2;P2;SDS_P1;SDS_P2;PMS_P1;PMS_P2;Temp;Humidity;BMP_temperature;BMP_pressure;BME280_temperature;BME280_humidity;BME280_pressure;Samples;Min_cycle;Max_cycle;Signal;HPM_P1;HPM_P2
2022/07/30 00:01:41;;;;;;;2.80;1.10;;;18.90;99.90;;;;;;4939880;29;20202;-83
2022/07/30 00:04:08;;;;;;;4.10;1.20;;;18.90;99.90;;;;;;4957029;29;20216;-82
2022/07/30 00:06:36;;;;;;;2.03;1.20;;;18.80;99.90;;;;;;4957033;29;20340;-83
2022/07/30 00:09:03;;;;;;;3.87;1.30;;;18.80;99.90;;;;;;4939576;29;20194;-82
2022/07/30 00:11:30;;;;;;;2.53;1.13;;;18.70;99.90;;;;;;4939582;29;20222;-83
2022/07/30 00:13:57;;;;;;;1.33;0.97;;;18.80;99.90;;;;;;4939733;29;20198;-84
2022/07/30 00:16:24;;;;;;;2.07;1.20;;;18.80;99.90;;;;;;4939741;29;20577;-81
2022/07/30 00:18:51;;;;;;;1.83;1.20;;;18.80;99.90;;;;;;4939423;28;20202;-82
2022/07/30 00:21:18;;;;;;;2.90;1.10;;;18.80;99.90;;;;;;4955356;29;20214;-82
2022/07/30 00:24:02;;;;;;;3.00;1.30;;;18.80;99.90;;;;;;4939387;29;20202;-85
2022/07/30 00:26:29;;;;;;;2.13;1.10;;;18.70;99.90;;;;;;4956739;29;20245;-84
2022/07/30 00:28:57;;;;;;;6.70;1.87;;;18.60;99.90;;;;;;4956959;29;20365;-82
2022/07/30 00:31:23;;;;;;;3.30;1.50;;;18.60;99.90;;;;;;4938997;29;20214;-82
2022/07/30 00:33:50;;;;;;;5.13;1.30;;;18.50;99.90;;;;;;4939255;29;20662;-83
2022/07/30 00:36:17;;;;;;;1.63;1.13;;;18.50;99.90;;;;;;4939224;29;20206;-84
2022/07/30 00:38:44;;;;;;;3.93;1.20;;;18.50;99.90;;;;;;4939141;29;20206;-85
2022/07/30 00:41:11;;;;;;;4.73;1.60;;;18.40;99.90;;;;;;4956421;29;20217;-82
2022/07/30 00:43:41;;;;;;;5.33;1.40;;;18.40;99.90;;;;;;4939107;29;20210;-82
2022/07/30 00:46:09;;;;;;;2.43;1.20;;;18.50;99.90;;;;;;4923551;29;20289;-84
2022/07/30 00:48:36;;;;;;;2.03;1.13;;;18.40;99.90;;;;;;4938675;29;20213;-84
2022/07/30 00:51:03;;;;;;;1.87;1.20;;;18.40;99.90;;;;;;4938906;29;20257;-85
2022/07/30 00:53:30;;;;;;;2.73;1.40;;;18.40;99.90;;;;;;4938783;29;20245;-84
2022/07/30 00:55:57;;;;;;;7.90;1.60;;;18.40;99.90;;;;;;4939007;29;20198;-84
2022/07/30 00:58:24;;;;;;;2.53;1.20;;;18.30;99.90;;;;;;4939095;29;20281;-85
2022/07/30 01:00:51;;;;;;;2.73;1.40;;;18.40;99.90;;;;;;4938609;29;20213;-82
2022/07/30 01:03:18;;;;;;;2.93;1.40;;;18.20;99.90;;;;;;4955581;29;20621;-83
2022/07/30 01:05:45;;;;;;;5.20;1.30;;;18.20;99.90;;;;;;4956000;29;20237;-85
2022/07/30 01:08:12;;;;;;;2.23;1.47;;;18.10;99.90;;;;;;4938557;29;20301;-85
2022/07/30 01:10:39;;;;;;;5.27;1.37;;;18.00;99.90;;;;;;4938414;29;20290;-85
2022/07/30 01:13:07;;;;;;;3.27;1.43;;;18.00;99.90;;;;;;4938476;29;20273;-84
2022/07/30 01:15:34;;;;;;;1.70;1.30;;;17.90;99.90;;;;;;4954807;29;20297;-87
2022/07/30 01:18:04;;;;;;;2.70;1.50;;;18.00;99.90;;;;;;4938127;29;20210;-84
2022/07/30 01:20:54;;;;;;;1.83;1.37;;;18.00;99.90;;;;;;4955720;29;20221;-83
2022/07/30 01:23:31;;;;;;;3.80;1.50;;;18.00;99.90;;;;;;4954371;29;20289;-82
2022/07/30 01:26:03;;;;;;;2.10;1.50;;;17.90;99.90;;;;;;4922798;29;20213;-85
2022/07/30 01:28:34;;;;;;;3.20;1.40;;;17.90;99.90;;;;;;4938620;29;20308;-87
2022/07/30 01:31:04;;;;;;;2.13;1.30;;;17.80;99.90;;;;;;4937318;29;20635;-86
2022/07/30 01:33:36;;;;;;;3.70;1.20;;;17.80;99.90;;;;;;4954162;29;20292;-86
2022/07/30 01:36:06;;;;;;;6.00;1.47;;;17.80;99.90;;;;;;4938231;29;20210;-87
2022/07/30 01:38:35;;;;;;;2.13;1.33;;;17.80;99.90;;;;;;4954208;29;20212;-83
2022/07/30 01:41:03;;;;;;;3.87;1.50;;;17.80;99.90;;;;;;4937775;29;20202;-79
2022/07/30 01:43:34;;;;;;;2.67;1.37;;;17.90;99.90;;;;;;4954326;29;20301;-88
2022/07/30 01:46:03;;;;;;;4.57;1.40;;;17.80;99.90;;;;;;4938099;29;20729;-84
2022/07/30 01:48:33;;;;;;;3.23;1.23;;;17.90;99.90;;;;;;4938081;29;20220;-84
2022/07/30 01:51:06;;;;;;;2.27;1.30;;;17.80;99.90;;;;;;4918894;29;20581;-83
2022/07/30 01:53:36;;;;;;;2.30;1.40;;;17.70;99.90;;;;;;4936116;29;20209;-83
2022/07/30 01:56:04;;;;;;;4.97;1.60;;;17.70;99.90;;;;;;4918728;29;20203;-81
2022/07/30 01:58:37;;;;;;;4.17;1.50;;;17.70;99.90;;;;;;4918886;29;20194;-87
2022/07/30 02:01:06;;;;;;;3.27;1.47;;;17.60;99.90;;;;;;4918792;29;20207;-81
2022/07/30 02:03:34;;;;;;;4.07;1.40;;;17.70;99.90;;;;;;4918755;29;20211;-82
2022/07/30 02:06:08;;;;;;;2.90;1.57;;;17.60;99.90;;;;;;4919239;29;20249;-83
2022/07/30 02:09:06;;;;;;;3.47;1.40;;;17.60;99.90;;;;;;4918802;29;20194;-81
2022/07/30 02:14:46;;;;;;;3.10;1.47;;;17.70;99.90;;;;;;4914599;29;20228;-83
2022/07/30 02:17:19;;;;;;;4.60;1.50;;;17.60;99.90;;;;;;4914742;29;20211;-83
2022/07/30 02:19:49;;;;;;;2.97;1.30;;;17.60;99.90;;;;;;4898705;29;20726;-83
2022/07/30 02:22:19;;;;;;;2.50;1.43;;;17.60;99.90;;;;;;4914476;29;20207;-82
2022/07/30 02:24:50;;;;;;;2.70;1.67;;;17.60;99.90;;;;;;4914782;29;20203;-85
2022/07/30 02:27:24;;;;;;;2.67;1.40;;;17.60;99.90;;;;;;4914928;29;20204;-84
2022/07/30 02:29:54;;;;;;;2.60;1.47;;;17.50;99.90;;;;;;4914521;29;20305;-83
2022/07/30 02:32:23;;;;;;;2.40;1.30;;;17.60;99.90;;;;;;4914276;29;20603;-83
2022/07/30 02:34:59;;;;;;;2.83;1.60;;;17.60;99.90;;;;;;4899265;29;20204;-84
2022/07/30 02:37:28;;;;;;;1.80;1.60;;;17.60;99.90;;;;;;4914461;29;20255;-83
2022/07/30 02:40:13;;;;;;;1.87;1.40;;;17.60;99.90;;;;;;4914213;29;20678;-81
2022/07/30 02:42:42;;;;;;;2.77;1.50;;;17.50;99.90;;;;;;4915354;29;20718;-81
2022/07/30 02:45:10;;;;;;;2.73;1.47;;;17.60;99.90;;;;;;4918332;29;20242;-82
2022/07/30 02:47:39;;;;;;;2.87;1.50;;;17.50;99.90;;;;;;4925969;29;20272;-82
2022/07/30 02:50:09;;;;;;;2.47;1.40;;;17.50;99.90;;;;;;4935097;29;20234;-83
2022/07/30 02:52:40;;;;;;;4.37;1.60;;;17.50;99.90;;;;;;4940819;29;20767;-82
2022/07/30 02:55:09;;;;;;;3.80;1.53;;;17.40;99.90;;;;;;4957031;29;20682;-82
2022/07/30 02:57:41;;;;;;;3.33;1.50;;;17.40;99.90;;;;;;4956931;29;20662;-82
2022/07/30 03:00:10;;;;;;;4.67;1.53;;;17.40;99.90;;;;;;4941522;29;20269;-83
2022/07/30 03:02:39;;;;;;;2.40;1.50;;;17.30;99.90;;;;;;4940714;29;20202;-81
2022/07/30 03:05:10;;;;;;;2.50;1.47;;;17.30;99.90;;;;;;4940659;29;20281;-81
2022/07/30 03:07:39;;;;;;;2.50;1.60;;;17.30;99.90;;;;;;4940978;29;20225;-82
2022/07/30 03:10:07;;;;;;;3.37;1.60;;;17.20;99.90;;;;;;4958111;29;20202;-83
2022/07/30 03:12:36;;;;;;;3.90;1.63;;;17.30;99.90;;;;;;4958090;29;20297;-83
2022/07/30 03:15:04;;;;;;;3.13;1.60;;;17.40;99.90;;;;;;4941059;29;20301;-82
2022/07/30 03:17:37;;;;;;;2.23;1.50;;;17.30;99.90;;;;;;4940776;29;20205;-83
2022/07/30 03:20:08;;;;;;;2.33;1.50;;;17.40;99.90;;;;;;4940741;29;20289;-83
2022/07/30 03:22:43;;;;;;;3.20;1.60;;;17.40;99.90;;;;;;4956463;29;20281;-83
2022/07/30 03:25:16;;;;;;;3.03;1.73;;;17.40;99.90;;;;;;4940359;29;20558;-83
2022/07/30 03:27:45;;;;;;;2.83;1.60;;;17.40;99.90;;;;;;4940602;29;20207;-84
2022/07/30 03:30:12;;;;;;;2.20;1.30;;;17.40;99.90;;;;;;4940331;29;20202;-82
2022/07/30 03:32:40;;;;;;;2.77;1.50;;;17.40;99.90;;;;;;4957728;29;20226;-84
2022/07/30 03:35:09;;;;;;;3.87;1.60;;;17.40;99.90;;;;;;4940642;29;20194;-83
2022/07/30 03:37:43;;;;;;;1.90;1.60;;;17.40;99.90;;;;;;4940376;29;20217;-83
2022/07/30 03:40:12;;;;;;;2.90;1.60;;;17.40;99.90;;;;;;4956591;29;20202;-84
2022/07/30 03:42:39;;;;;;;2.50;1.70;;;17.40;99.90;;;;;;4956096;29;20293;-83
2022/07/30 03:45:07;;;;;;;2.67;1.20;;;17.40;99.90;;;;;;4957360;29;20284;-85
2022/07/30 03:47:37;;;;;;;3.30;1.60;;;17.40;99.90;;;;;;4940572;29;20203;-84
2022/07/30 03:50:05;;;;;;;2.20;1.50;;;17.30;99.90;;;;;;4957276;29;20218;-85
2022/07/30 03:52:39;;;;;;;4.17;1.50;;;17.30;99.90;;;;;;4939759;29;20713;-84
2022/07/30 03:55:08;;;;;;;4.03;1.50;;;17.40;99.90;;;;;;4939422;29;20229;-84
2022/07/30 03:57:35;;;;;;;3.37;1.60;;;17.40;99.90;;;;;;4939835;29;20614;-84
2022/07/30 04:00:11;;;;;;;2.50;1.67;;;17.40;99.90;;;;;;4940190;29;20249;-84
2022/07/30 04:02:46;;;;;;;3.50;1.30;;;17.40;99.90;;;;;;4939736;29;20556;-84
2022/07/30 04:05:14;;;;;;;5.30;1.60;;;17.50;99.90;;;;;;4939874;29;20252;-84
2022/07/30 04:07:41;;;;;;;1.60;1.33;;;17.50;99.90;;;;;;4939684;29;20209;-82
2022/07/30 04:10:11;;;;;;;3.23;1.50;;;17.60;99.90;;;;;;4924420;29;20636;-85
2022/07/30 04:12:39;;;;;;;1.87;1.57;;;17.60;99.90;;;;;;4939472;29;20232;-86
2022/07/30 04:15:06;;;;;;;5.30;1.60;;;17.70;99.90;;;;;;4956937;29;20277;-85
2022/07/30 04:18:00;;;;;;;3.37;1.60;;;17.70;99.90;;;;;;4926437;29;20198;-85
2022/07/30 04:20:33;;;;;;;3.97;1.60;;;17.70;99.90;;;;;;4956457;29;20287;-84
2022/07/30 04:23:01;;;;;;;2.70;1.70;;;17.60;99.90;;;;;;4939858;29;20240;-85
2022/07/30 04:25:29;;;;;;;5.87;1.80;;;17.60;99.90;;;;;;4940019;29;20269;-84
2022/07/30 04:27:56;;;;;;;3.77;1.70;;;17.70;99.90;;;;;;4956670;29;20225;-85
2022/07/30 04:30:32;;;;;;;4.13;1.50;;;17.80;99.90;;;;;;4939772;29;20603;-86
2022/07/30 04:32:59;;;;;;;1.90;1.60;;;17.90;99.90;;;;;;4955242;29;20265;-85
2022/07/30 04:35:28;;;;;;;4.70;1.60;;;17.90;99.90;;;;;;4939190;29;20592;-85
2022/07/30 04:38:15;;;;;;;2.33;1.80;;;17.90;99.90;;;;;;4939311;29;20198;-85
2022/07/30 04:40:42;;;;;;;3.20;1.83;;;18.00;99.90;;;;;;5018462;23;20235;-84
2022/07/30 04:43:08;;;;;;;3.63;1.80;;;18.00;99.90;;;;;;4996881;28;20684;-84
2022/07/30 04:45:37;;;;;;;3.80;2.00;;;18.00;99.90;;;;;;4996864;28;20562;-83
2022/07/30 04:48:05;;;;;;;2.77;1.90;;;18.30;99.90;;;;;;4997081;28;20624;-83
2022/07/30 04:50:34;;;;;;;2.33;1.90;;;18.30;99.90;;;;;;4996824;28;20667;-84
2022/07/30 04:53:01;;;;;;;2.67;1.80;;;18.30;99.90;;;;;;4998744;28;20224;-84
2022/07/30 04:55:30;;;;;;;2.30;1.80;;;18.30;99.90;;;;;;5014680;28;20704;-90
2022/07/30 04:57:59;;;;;;;2.87;1.80;;;18.40;99.90;;;;;;4996659;28;20661;-88
2022/07/30 05:00:28;;;;;;;5.20;1.90;;;18.50;99.90;;;;;;5014103;28;20192;-87
2022/07/30 05:03:01;;;;;;;3.83;1.90;;;18.50;99.90;;;;;;4997251;28;20597;-89
2022/07/30 05:05:31;;;;;;;3.70;1.90;;;18.50;99.90;;;;;;5014397;28;20197;-89
2022/07/30 05:08:00;;;;;;;2.20;1.80;;;18.60;99.90;;;;;;5016365;28;20200;-87
2022/07/30 05:10:27;;;;;;;4.17;2.00;;;18.50;99.90;;;;;;4999802;28;20250;-88
2022/07/30 05:12:54;;;;;;;3.10;1.77;;;18.60;99.90;;;;;;4996125;28;20560;-85
2022/07/30 05:15:21;;;;;;;3.43;1.63;;;18.80;99.90;;;;;;4996486;28;20202;-83
2022/07/30 05:18:02;;;;;;;2.53;1.70;;;18.70;99.90;;;;;;4996485;28;20653;-85
2022/07/30 05:20:28;;;;;;;3.63;1.67;;;18.70;99.90;;;;;;4996334;28;20323;-85
2022/07/30 05:22:56;;;;;;;6.50;1.97;;;18.70;99.90;;;;;;4996432;28;20247;-86
2022/07/30 05:25:23;;;;;;;3.57;2.00;;;18.80;99.90;;;;;;4999319;28;20235;-86
2022/07/30 05:27:51;;;;;;;5.20;1.83;;;18.70;99.90;;;;;;4996361;28;20203;-90
2022/07/30 05:30:18;;;;;;;2.93;1.90;;;18.80;99.90;;;;;;4996290;28;20192;-92
2022/07/30 05:32:51;;;;;;;4.23;1.83;;;18.70;99.90;;;;;;4996295;28;20219;-90
2022/07/30 05:35:18;;;;;;;6.17;2.27;;;18.80;99.90;;;;;;4996430;28;20189;-92
2022/07/30 05:37:46;;;;;;;2.90;1.90;;;18.80;99.90;;;;;;5013906;28;20228;-88
2022/07/30 05:40:15;;;;;;;2.43;1.80;;;18.70;99.90;;;;;;4995975;28;20228;-89
2022/07/30 05:42:41;;;;;;;5.73;1.77;;;18.60;99.90;;;;;;5018032;28;20184;-86
2022/07/30 05:45:08;;;;;;;4.37;1.90;;;18.60;99.90;;;;;;4996930;28;20208;-83
2022/07/30 05:47:35;;;;;;;4.33;2.13;;;18.60;99.90;;;;;;5014256;28;20661;-92
2022/07/30 05:50:03;;;;;;;3.43;2.00;;;18.60;99.90;;;;;;4998049;28;20192;-92
2022/07/30 05:52:32;;;;;;;3.70;1.90;;;18.60;99.90;;;;;;4996474;28;20654;-92
2022/07/30 05:54:58;;;;;;;3.43;1.73;;;18.50;99.90;;;;;;4999654;28;20286;-89
2022/07/30 05:57:25;;;;;;;2.87;1.67;;;18.50;99.90;;;;;;5013536;28;20200;-93
2022/07/30 05:59:52;;;;;;;2.73;1.80;;;18.50;99.90;;;;;;4996652;28;20291;-93
2022/07/30 06:02:19;;;;;;;3.53;2.07;;;18.60;99.90;;;;;;4997148;28;20215;-92
2022/07/30 06:04:50;;;;;;;4.57;1.80;;;18.60;99.90;;;;;;4997709;28;20214;-92
2022/07/30 06:07:17;;;;;;;4.13;1.70;;;18.60;99.90;;;;;;5014872;28;20227;-84
2022/07/30 06:09:44;;;;;;;4.07;1.90;;;18.80;99.90;;;;;;4996303;28;20204;-90
2022/07/30 06:12:11;;;;;;;8.93;2.23;;;18.80;99.90;;;;;;4995756;28;20214;-89
2022/07/30 06:14:38;;;;;;;5.83;1.93;;;18.90;99.90;;;;;;4999193;28;20695;-89
2022/07/30 06:17:05;;;;;;;3.07;1.87;;;19.00;99.90;;;;;;4996220;28;20712;-92
2022/07/30 06:19:32;;;;;;;3.00;2.00;;;19.10;99.90;;;;;;5017981;28;20283;-93
2022/07/30 06:21:59;;;;;;;2.33;1.60;;;19.30;99.90;;;;;;5000548;28;20426;-93
2022/07/30 06:24:32;;;;;;;3.60;1.80;;;19.30;99.90;;;;;;5000451;28;20195;-94
2022/07/30 06:26:59;;;;;;;5.07;2.10;;;19.40;99.90;;;;;;5000650;28;20227;-90
2022/07/30 06:29:27;;;;;;;7.23;2.20;;;19.50;99.90;;;;;;5001354;28;20188;-91
2022/07/30 06:31:54;;;;;;;5.67;1.70;;;19.50;99.90;;;;;;5019375;28;20218;-91
2022/07/30 06:34:21;;;;;;;4.90;1.83;;;19.60;99.90;;;;;;5002296;28;20215;-93
2022/07/30 06:36:48;;;;;;;3.07;1.80;;;19.70;99.90;;;;;;5001358;28;20192;-91
2022/07/30 06:39:16;;;;;;;3.53;1.90;;;19.80;99.90;;;;;;5017583;28;20286;-89
2022/07/30 06:42:03;;;;;;;5.27;1.87;;;19.80;99.90;;;;;;4999065;28;20645;-91
2022/07/30 06:44:30;;;;;;;2.70;1.83;;;19.90;99.90;;;;;;5018408;28;20192;-89
2022/07/30 06:46:57;;;;;;;10.30;2.20;;;19.90;99.90;;;;;;4999304;28;20554;-92
2022/07/30 06:49:31;;;;;;;4.70;2.07;;;20.00;99.90;;;;;;5017111;28;20538;-90
2022/07/30 06:51:59;;;;;;;4.73;1.70;;;20.10;99.90;;;;;;4999596;28;20653;-89
2022/07/30 06:54:26;;;;;;;3.20;1.70;;;20.20;99.90;;;;;;5016929;28;20655;-91
2022/07/30 06:56:53;;;;;;;2.47;1.90;;;20.20;99.90;;;;;;4999030;28;20228;-90
2022/07/30 06:59:20;;;;;;;3.87;1.90;;;20.20;99.90;;;;;;4999101;28;20214;-92
2022/07/30 07:01:48;;;;;;;5.70;1.90;;;20.20;99.90;;;;;;4999456;28;20196;-91
2022/07/30 07:04:15;;;;;;;6.13;2.03;;;20.30;99.90;;;;;;5017237;28;20650;-92
2022/07/30 07:06:42;;;;;;;4.10;1.90;;;20.40;99.90;;;;;;4999136;28;20215;-93
2022/07/30 07:09:09;;;;;;;3.77;2.00;;;20.40;99.90;;;;;;4999015;28;20200;-84
2022/07/30 07:11:37;;;;;;;4.20;2.00;;;20.70;99.90;;;;;;4985271;28;20546;-93
2022/07/30 07:14:04;;;;;;;4.77;2.27;;;20.80;99.90;;;;;;4985441;28;20255;-89
2022/07/30 07:16:31;;;;;;;4.27;2.07;;;20.90;99.90;;;;;;5001960;28;20196;-92
2022/07/30 07:18:58;;;;;;;3.83;2.07;;;21.00;99.90;;;;;;4998810;28;20222;-86
2022/07/30 07:21:25;;;;;;;3.30;2.00;;;21.00;99.90;;;;;;4999242;28;20223;-83
2022/07/30 07:23:52;;;;;;;5.27;1.97;;;21.10;99.90;;;;;;4999402;28;20254;-92
2022/07/30 07:26:19;;;;;;;5.43;2.40;;;21.20;99.90;;;;;;5001103;28;20596;-86
2022/07/30 07:28:46;;;;;;;5.57;2.00;;;21.30;99.90;;;;;;5017654;28;20202;-92
2022/07/30 07:31:13;;;;;;;3.00;2.00;;;21.40;99.90;;;;;;4999349;28;20262;-93
2022/07/30 07:34:00;;;;;;;3.13;2.17;;;21.60;99.90;;;;;;4999319;28;20215;-85
2022/07/30 07:36:27;;;;;;;2.90;1.90;;;21.70;99.90;;;;;;4998559;28;20196;-88
2022/07/30 07:38:54;;;;;;;3.47;2.10;;;22.10;99.90;;;;;;4998199;28;20635;-80
2022/07/30 07:41:21;;;;;;;3.33;2.00;;;22.10;99.90;;;;;;4997867;28;20234;-81
2022/07/30 07:43:48;;;;;;;3.40;2.10;;;22.20;99.90;;;;;;4998466;28;20524;-84
2022/07/30 07:46:16;;;;;;;3.33;2.22;;;22.30;99.90;;;;;;4998442;28;20290;-86
2022/07/30 07:48:59;;;;;;;2.50;2.17;;;22.50;99.90;;;;;;4997891;28;20204;-73
2022/07/30 07:51:27;;;;;;;6.13;2.73;;;22.70;99.90;;;;;;4997914;28;20192;-79
2022/07/30 07:54:15;;;;;;;4.32;2.20;;;22.80;99.90;;;;;;4997861;28;20216;-79
2022/07/30 07:56:50;;;;;;;3.27;2.37;;;22.90;99.90;;;;;;4997923;28;20223;-83
2022/07/30 07:59:23;;;;;;;3.80;2.47;;;22.80;99.90;;;;;;4983265;28;20200;-80
2022/07/30 08:02:06;;;;;;;4.50;2.60;;;22.90;99.90;;;;;;4994323;28;20568;-80
2022/07/30 08:04:34;;;;;;;7.22;5.15;;;23.00;99.90;;;;;;4995214;28;20286;-76
2022/07/30 08:07:02;;;;;;;5.13;2.90;;;23.20;99.90;;;;;;4978150;28;20561;-78
2022/07/30 08:09:30;;;;;;;5.23;2.70;;;23.20;99.90;;;;;;4977684;28;20251;-75
2022/07/30 08:12:15;;;;;;;4.18;2.60;;;23.30;99.90;;;;;;4977928;28;20586;-81
2022/07/30 08:14:42;;;;;;;4.13;2.90;;;23.60;99.90;;;;;;4977626;28;20661;-80
2022/07/30 08:17:09;;;;;;;5.25;2.78;;;23.80;99.90;;;;;;4977888;28;20203;-90
2022/07/30 08:19:36;;;;;;;5.70;2.92;;;23.80;99.90;;;;;;4995611;28;20204;-83
2022/07/30 08:22:04;;;;;;;5.32;3.03;;;23.90;99.90;;;;;;4977830;28;20221;-72
2022/07/30 08:24:31;;;;;;;4.47;2.72;;;24.30;99.90;;;;;;4978010;28;20677;-87
2022/07/30 08:26:59;;;;;;;3.40;2.83;;;24.40;99.90;;;;;;4977947;28;20259;-82
2022/07/30 08:29:29;;;;;;;5.68;3.00;;;24.50;99.90;;;;;;4995332;28;20189;-81
2022/07/30 08:31:56;;;;;;;4.35;3.03;;;24.60;99.90;;;;;;4995462;28;20279;-87
2022/07/30 08:34:23;;;;;;;15.15;3.80;;;24.60;99.90;;;;;;4977804;28;20221;-83
2022/07/30 08:36:51;;;;;;;5.28;3.17;;;24.50;99.90;;;;;;4995097;28;20203;-75
2022/07/30 08:39:18;;;;;;;6.35;3.17;;;24.50;99.90;;;;;;4994716;28;20299;-79
2022/07/30 08:41:47;;;;;;;4.57;3.08;;;24.30;99.90;;;;;;4977100;28;20303;-80
2022/07/30 08:44:17;;;;;;;4.22;3.10;;;24.10;99.90;;;;;;4977459;28;20193;-80
2022/07/30 08:46:46;;;;;;;5.10;3.10;;;24.00;99.90;;;;;;4977688;28;20200;-82
2022/07/30 08:49:13;;;;;;;4.38;3.30;;;23.90;99.90;;;;;;4977390;28;20205;-79
2022/07/30 08:51:41;;;;;;;4.53;2.70;;;23.70;99.90;;;;;;4994496;28;20591;-71
2022/07/30 08:54:08;;;;;;;9.20;4.00;;;23.80;99.90;;;;;;4977388;28;20234;-74
2022/07/30 08:56:36;;;;;;;3.72;2.90;;;23.80;99.90;;;;;;4994756;28;20201;-72
2022/07/30 08:59:03;;;;;;;4.40;2.88;;;23.80;99.90;;;;;;4977156;28;20245;-78
2022/07/30 09:01:30;;;;;;;4.82;3.00;;;23.80;99.90;;;;;;4977085;28;20208;-83
2022/07/30 09:03:57;;;;;;;5.40;3.28;;;23.90;99.90;;;;;;4977048;28;20227;-79
2022/07/30 09:06:24;;;;;;;5.72;3.72;;;23.90;99.90;;;;;;4977159;28;20658;-82
2022/07/30 09:08:52;;;;;;;4.15;2.67;;;23.70;99.90;;;;;;4980696;28;20220;-83
2022/07/30 09:11:19;;;;;;;3.15;2.83;;;23.80;99.90;;;;;;4996050;28;20649;-77
2022/07/30 09:13:47;;;;;;;6.07;2.90;;;23.90;99.90;;;;;;4995865;28;20598;-82
2022/07/30 09:16:22;;;;;;;4.30;2.95;;;24.00;99.90;;;;;;4995873;28;20238;-81
2022/07/30 09:18:51;;;;;;;4.25;2.45;;;24.00;99.90;;;;;;4996344;28;20203;-77
2022/07/30 09:21:24;;;;;;;4.15;2.67;;;24.00;99.90;;;;;;4995835;28;20706;-76
2022/07/30 09:24:04;;;;;;;4.40;2.97;;;24.10;99.90;;;;;;4995756;28;20661;-78
2022/07/30 09:26:50;;;;;;;4.40;2.40;;;24.20;99.90;;;;;;4995806;28;20204;-78
2022/07/30 09:29:22;;;;;;;5.28;2.90;;;24.20;99.90;;;;;;4996459;28;20207;-76
2022/07/30 09:32:01;;;;;;;7.25;3.15;;;24.30;99.90;;;;;;4972223;28;20200;-79
2022/07/30 09:34:38;;;;;;;7.03;3.00;;;24.10;99.90;;;;;;4986872;28;20741;-79
2022/07/30 09:37:09;;;;;;;5.85;2.67;;;24.00;99.90;;;;;;4993906;28;20203;-78
2022/07/30 09:39:40;;;;;;;6.05;2.55;;;24.00;99.90;;;;;;4975598;28;20233;-76
2022/07/30 09:42:25;;;;;;;5.85;2.75;;;23.90;99.90;;;;;;4993294;28;20197;-73
2022/07/30 09:45:07;;;;;;;4.93;2.75;;;23.80;99.90;;;;;;4993750;28;20223;-83
2022/07/30 09:47:36;;;;;;;5.03;2.60;;;23.80;99.90;;;;;;4976473;28;20197;-72
2022/07/30 09:50:08;;;;;;;6.72;2.97;;;23.60;99.90;;;;;;4992535;28;20211;-74
2022/07/30 09:52:37;;;;;;;4.88;2.67;;;23.60;99.90;;;;;;4992688;28;20251;-81
2022/07/30 09:55:34;;;;;;;4.57;2.80;;;23.50;99.90;;;;;;4989632;28;20224;-73
2022/07/30 09:58:07;;;;;;;5.00;2.60;;;23.40;99.90;;;;;;4975798;28;20203;-72
2022/07/30 10:00:35;;;;;;;5.55;2.75;;;23.30;99.90;;;;;;4976226;28;20207;-74
2022/07/30 10:03:19;;;;;;;8.13;2.88;;;23.30;99.90;;;;;;4975947;28;20193;-73
2022/07/30 10:06:00;;;;;;;7.17;2.70;;;23.00;99.90;;;;;;4975959;28;20215;-74
2022/07/30 10:08:43;;;;;;;5.20;2.73;;;23.00;99.90;;;;;;4975743;28;20706;-79
2022/07/30 10:11:23;;;;;;;3.40;2.28;;;23.00;99.90;;;;;;4976042;28;20300;-74
2022/07/30 10:13:58;;;;;;;4.60;2.77;;;23.00;99.90;;;;;;4975363;28;20674;-77
2022/07/30 10:16:27;;;;;;;7.50;3.10;;;22.80;99.90;;;;;;4993335;28;20203;-75
2022/07/30 10:18:58;;;;;;;7.10;2.70;;;22.70;99.90;;;;;;4960449;28;20236;-72
2022/07/30 10:21:28;;;;;;;8.33;3.27;;;22.70;99.90;;;;;;4975713;28;20231;-74
2022/07/30 10:24:02;;;;;;;4.20;2.57;;;22.60;99.90;;;;;;4992670;28;20197;-76
2022/07/30 10:26:33;;;;;;;5.97;2.63;;;22.60;99.90;;;;;;5008541;28;20240;-76
2022/07/30 10:29:01;;;;;;;7.77;2.67;;;22.50;99.90;;;;;;4993198;28;20616;-76
2022/07/30 10:31:29;;;;;;;5.00;2.50;;;22.40;99.90;;;;;;4993598;28;20332;-73
2022/07/30 10:34:20;;;;;;;5.17;2.60;;;22.40;99.90;;;;;;4975670;28;20689;-75
2022/07/30 10:36:59;;;;;;;3.50;2.57;;;22.40;99.90;;;;;;5008423;28;20220;-73
2022/07/30 10:39:36;;;;;;;7.13;3.10;;;22.40;99.90;;;;;;4983524;28;20231;-72
2022/07/30 10:42:24;;;;;;;4.00;2.90;;;22.40;99.90;;;;;;4994125;28;20573;-75
2022/07/30 10:45:26;;;;;;;5.73;2.90;;;22.40;99.90;;;;;;4994339;28;20563;-81
2022/07/30 10:47:55;;;;;;;6.77;2.63;;;22.30;99.90;;;;;;4994339;28;20203;-71
2022/07/30 10:50:26;;;;;;;4.83;2.67;;;22.10;99.90;;;;;;4993698;28;20283;-78
2022/07/30 10:52:57;;;;;;;6.97;3.00;;;22.20;99.90;;;;;;4993867;28;20215;-74
2022/07/30 10:55:36;;;;;;;5.07;2.90;;;22.20;99.90;;;;;;4995303;28;20223;-71
2022/07/30 10:58:08;;;;;;;4.97;3.00;;;22.20;99.90;;;;;;4974576;28;20227;-79
2022/07/30 11:00:55;;;;;;;5.88;3.00;;;22.20;99.90;;;;;;4974941;28;20200;-75
2022/07/30 11:03:28;;;;;;;4.83;3.10;;;22.20;99.90;;;;;;4975028;28;20291;-77
2022/07/30 11:06:16;;;;;;;14.07;3.67;;;22.20;99.90;;;;;;5010689;28;20221;-77
2022/07/30 11:08:50;;;;;;;8.87;3.23;;;22.10;99.90;;;;;;4977609;28;20193;-72
2022/07/30 11:11:22;;;;;;;6.90;3.20;;;22.00;99.90;;;;;;4977847;28;20197;-78
2022/07/30 11:14:11;;;;;;;3.47;2.73;;;21.90;99.90;;;;;;5010205;28;20227;-81
2022/07/30 11:16:38;;;;;;;7.60;3.17;;;21.80;99.90;;;;;;5010577;28;20255;-71
2022/07/30 11:19:16;;;;;;;6.77;3.17;;;21.80;99.90;;;;;;4977650;28;20223;-70
2022/07/30 11:22:24;;;;;;;6.23;3.40;;;21.70;99.90;;;;;;4994760;28;20239;-71
2022/07/30 11:24:52;;;;;;;13.30;3.73;;;21.70;99.90;;;;;;4977381;28;20395;-70
2022/07/30 11:27:49;;;;;;;7.93;3.33;;;21.70;99.90;;;;;;4977169;28;20200;-70
2022/07/30 11:30:16;;;;;;;5.40;3.10;;;21.60;99.90;;;;;;4915842;29;20219;-74
2022/07/30 11:32:46;;;;;;;8.77;3.50;;;21.40;99.90;;;;;;4915796;29;20213;-73
2022/07/30 11:35:15;;;;;;;6.90;3.57;;;21.30;99.90;;;;;;4899911;29;20322;-71
2022/07/30 11:37:57;;;;;;;8.77;4.00;;;21.10;99.90;;;;;;4900030;29;20200;-72
2022/07/30 11:40:33;;;;;;;4.97;3.60;;;21.00;99.90;;;;;;4878097;29;1116438;-69
2022/07/30 11:43:18;;;;;;;6.47;3.80;;;20.90;99.90;;;;;;4919543;29;20278;-72
2022/07/30 11:46:09;;;;;;;8.00;4.23;;;20.60;99.90;;;;;;4935670;29;20198;-73
2022/07/30 11:48:41;;;;;;;7.87;4.63;;;20.60;99.90;;;;;;4919978;29;20206;-71
2022/07/30 11:51:09;;;;;;;7.90;3.93;;;20.40;99.90;;;;;;4919665;29;20659;-73
2022/07/30 11:53:36;;;;;;;8.37;5.17;;;20.30;99.90;;;;;;4916895;29;20777;-72
2022/07/30 11:56:03;;;;;;;5.83;4.50;;;20.10;99.90;;;;;;4919656;29;20667;-72
2022/07/30 11:58:33;;;;;;;6.47;3.83;;;20.00;99.90;;;;;;4919575;29;20592;-74
2022/07/30 12:01:03;;;;;;;5.23;4.13;;;20.00;99.90;;;;;;4919507;29;20213;-80
2022/07/30 12:03:40;;;;;;;4.77;3.90;;;20.10;99.90;;;;;;4935242;29;20205;-72
2022/07/30 12:06:16;;;;;;;6.53;4.00;;;20.00;99.90;;;;;;4938666;28;20234;-74
2022/07/30 12:08:47;;;;;;;6.50;4.00;;;20.00;99.90;;;;;;4981044;28;20637;-73
2022/07/30 12:11:14;;;;;;;4.97;4.10;;;19.90;99.90;;;;;;4997404;28;20192;-80
2022/07/30 12:13:42;;;;;;;5.73;3.80;;;19.80;99.90;;;;;;4980604;28;20211;-72
2022/07/30 12:16:16;;;;;;;6.00;3.53;;;19.70;99.90;;;;;;4996422;28;20212;-72
2022/07/30 12:18:44;;;;;;;6.10;3.87;;;19.70;99.90;;;;;;4997315;28;20656;-71
2022/07/30 12:21:12;;;;;;;11.70;5.00;;;19.70;99.90;;;;;;4997072;28;20228;-72
2022/07/30 12:23:42;;;;;;;9.57;4.30;;;19.60;99.90;;;;;;4996945;28;20199;-75
2022/07/30 12:26:21;;;;;;;6.93;4.20;;;19.60;99.90;;;;;;4997047;28;20206;-72
2022/07/30 12:28:48;;;;;;;5.87;4.20;;;19.60;99.90;;;;;;5014508;28;20271;-74
2022/07/30 12:31:15;;;;;;;5.07;4.17;;;19.60;99.90;;;;;;4996780;28;20656;-75
2022/07/30 12:33:42;;;;;;;10.47;4.37;;;19.60;99.90;;;;;;4996792;28;20196;-71
2022/07/30 12:36:21;;;;;;;4.70;3.90;;;19.70;99.90;;;;;;4996733;28;20804;-71
2022/07/30 12:38:51;;;;;;;8.03;4.13;;;19.70;99.90;;;;;;5014340;28;20568;-71
2022/07/30 12:41:18;;;;;;;8.63;4.50;;;19.70;99.90;;;;;;4998654;28;20336;-70
2022/07/30 12:43:55;;;;;;;11.33;4.30;;;19.60;99.90;;;;;;4996597;28;20595;-72
2022/07/30 12:46:25;;;;;;;6.77;4.23;;;19.70;99.90;;;;;;4997753;28;20299;-73
2022/07/30 12:48:52;;;;;;;4.87;4.00;;;19.80;99.90;;;;;;4996305;28;20284;-72
2022/07/30 12:51:22;;;;;;;5.63;3.97;;;19.80;99.90;;;;;;4996430;28;20254;-75
2022/07/30 12:53:51;;;;;;;7.03;3.87;;;19.90;99.90;;;;;;4995944;28;20238;-83
2022/07/30 12:56:26;;;;;;;4.87;4.00;;;19.90;99.90;;;;;;4996766;28;20609;-84
2022/07/30 12:58:55;;;;;;;5.83;3.80;;;20.00;99.90;;;;;;4996285;28;20295;-74
2022/07/30 13:01:41;;;;;;;7.33;3.87;;;20.00;99.90;;;;;;4996390;28;20197;-72
2022/07/30 13:04:09;;;;;;;5.03;3.80;;;20.10;99.90;;;;;;4996344;28;20206;-70
2022/07/30 13:06:36;;;;;;;6.27;3.93;;;20.30;99.90;;;;;;5013961;28;20196;-72
2022/07/30 13:09:04;;;;;;;4.90;3.63;;;20.30;99.90;;;;;;4995853;28;20200;-70